Time;durP1;ratioP1;P1;durP2;ratioP2;P2;SDS_P1;SDS_P2;PMS_P1;PMS_P2;Temp;Humidity;BMP_temperature;BMP_pressure;BME280_temperature;BME280_humidity;BME280_pressure;Samples;Min_cycle;Max_cycle;Signal;HPM_P1;HPM_P2
2023/02/20 00:00:58;;;;;;;7.23;4.10;;;4.00;99.90;;;;;;5074575;28;20771;-68
2023/02/20 00:03:25;;;;;;;10.53;4.40;;;4.00;99.90;;;;;;5074316;28;20457;-67
2023/02/20 00:05:52;;;;;;;6.80;4.07;;;4.10;99.90;;;;;;5074565;28;20462;-68
2023/02/20 00:08:18;;;;;;;5.53;3.83;;;4.10;99.90;;;;;;5074318;28;20458;-68
2023/02/20 00:10:46;;;;;;;6.10;4.67;;;4.10;99.90;;;;;;5075247;28;20481;-68
2023/02/20 00:13:12;;;;;;;5.43;4.20;;;4.20;99.90;;;;;;5074373;28;20454;-67
2023/02/20 00:15:39;;;;;;;5.50;3.43;;;4.20;99.90;;;;;;5074434;28;20549;-68
2023/02/20 00:18:07;;;;;;;10.50;4.70;;;4.20;99.90;;;;;;5074552;28;20459;-67
2023/02/20 00:20:36;;;;;;;6.30;4.10;;;4.20;99.90;;;;;;5074285;28;20854;-67
2023/02/20 00:23:02;;;;;;;7.30;4.67;;;4.20;99.90;;;;;;5074720;28;20459;-68
2023/02/20 00:25:29;;;;;;;6.30;4.37;;;4.20;99.90;;;;;;5074056;28;20451;-67
2023/02/20 00:27:56;;;;;;;11.27;4.43;;;4.10;99.90;;;;;;5074121;28;20454;-67
2023/02/20 00:30:24;;;;;;;6.07;4.20;;;4.10;99.90;;;;;;5075161;28;20450;-68
2023/02/20 00:32:54;;;;;;;9.70;5.27;;;4.20;99.90;;;;;;5073925;28;20571;-68
2023/02/20 00:35:23;;;;;;;5.00;4.07;;;4.10;99.90;;;;;;5074304;28;20488;-68
2023/02/20 00:37:50;;;;;;;8.80;4.73;;;4.10;99.90;;;;;;5074413;28;20911;-68
2023/02/20 00:40:19;;;;;;;7.27;4.83;;;4.10;99.90;;;;;;5074976;28;20465;-68
2023/02/20 00:42:46;;;;;;;6.97;5.00;;;4.00;99.90;;;;;;5073911;28;20488;-67
2023/02/20 00:45:15;;;;;;;5.87;4.43;;;4.00;99.90;;;;;;5074122;28;20454;-68
2023/02/20 00:47:42;;;;;;;6.83;5.00;;;3.90;99.90;;;;;;5073631;28;20468;-68
2023/02/20 00:50:10;;;;;;;7.67;5.40;;;3.90;99.90;;;;;;5073932;28;20545;-68
2023/02/20 00:52:39;;;;;;;7.70;4.83;;;3.90;99.90;;;;;;5075748;28;20484;-68
2023/02/20 00:55:06;;;;;;;6.43;4.57;;;3.90;99.90;;;;;;5077669;28;20547;-68
2023/02/20 00:57:33;;;;;;;8.50;5.63;;;3.90;99.90;;;;;;5077795;28;20497;-68
2023/02/20 01:00:00;;;;;;;7.60;4.80;;;3.90;99.90;;;;;;5077602;28;20454;-68
2023/02/20 01:02:27;;;;;;;7.20;4.50;;;3.90;99.90;;;;;;5077481;28;20536;-68
2023/02/20 01:04:55;;;;;;;7.40;4.87;;;3.90;99.90;;;;;;5077270;28;20456;-68
2023/02/20 01:07:22;;;;;;;7.77;5.03;;;3.90;99.90;;;;;;5077264;28;20463;-68
2023/02/20 01:09:50;;;;;;;7.07;5.03;;;3.90;99.90;;;;;;5077590;28;20957;-68
2023/02/20 01:12:17;;;;;;;8.13;5.47;;;3.90;99.90;;;;;;5077225;28;20548;-67
2023/02/20 01:14:44;;;;;;;8.53;5.47;;;4.00;99.90;;;;;;5077368;28;20484;-68
2023/02/20 01:17:12;;;;;;;7.67;4.63;;;4.00;99.90;;;;;;5077386;28;20486;-68
2023/02/20 01:19:39;;;;;;;7.10;4.57;;;4.00;99.90;;;;;;5077200;28;20454;-68
2023/02/20 01:22:07;;;;;;;7.10;4.70;;;4.00;99.90;;;;;;5077244;28;20793;-68
2023/02/20 01:24:34;;;;;;;6.13;4.67;;;4.00;99.90;;;;;;5076680;28;20549;-68
2023/02/20 01:27:02;;;;;;;6.80;4.80;;;4.00;99.90;;;;;;5076842;28;20918;-67
2023/02/20 01:29:29;;;;;;;7.27;4.47;;;4.00;99.90;;;;;;5077278;28;20497;-68
2023/02/20 01:31:56;;;;;;;8.70;5.40;;;3.90;99.90;;;;;;5077152;28;20480;-66
2023/02/20 01:34:23;;;;;;;9.73;5.13;;;4.00;99.90;;;;;;5077100;28;20486;-68
2023/02/20 01:36:52;;;;;;;7.20;5.13;;;4.00;99.90;;;;;;5076738;28;20458;-69
2023/02/20 01:39:20;;;;;;;8.00;5.70;;;4.00;99.90;;;;;;5077074;28;20810;-67
2023/02/20 01:41:49;;;;;;;7.70;5.00;;;4.10;99.90;;;;;;5076522;28;20821;-68
2023/02/20 01:44:23;;;;;;;9.73;5.43;;;4.10;99.90;;;;;;5076484;28;20454;-67
2023/02/20 01:46:52;;;;;;;7.13;5.27;;;4.00;99.90;;;;;;5076890;28;20442;-68
2023/02/20 01:49:28;;;;;;;8.93;5.10;;;4.00;99.90;;;;;;5076828;28;20549;-68
2023/02/20 01:52:00;;;;;;;8.30;5.57;;;4.10;99.90;;;;;;5076790;28;20442;-68
2023/02/20 01:54:28;;;;;;;8.03;5.50;;;4.10;99.90;;;;;;5076655;28;20462;-68
2023/02/20 01:56:58;;;;;;;13.97;5.47;;;4.20;99.90;;;;;;5076636;28;20469;-67
2023/02/20 01:59:29;;;;;;;9.40;6.13;;;4.20;99.90;;;;;;5076642;28;20455;-68
2023/02/20 02:01:56;;;;;;;8.70;5.60;;;4.20;99.90;;;;;;5076454;28;20447;-68
2023/02/20 02:04:23;;;;;;;11.40;6.23;;;4.30;99.90;;;;;;5075999;28;20464;-67
2023/02/20 02:06:53;;;;;;;7.83;4.90;;;4.30;99.90;;;;;;5076447;28;20454;-68
2023/02/20 02:09:28;;;;;;;11.43;5.40;;;4.30;99.90;;;;;;5076322;28;20458;-68
2023/02/20 02:11:55;;;;;;;7.70;4.80;;;4.30;99.90;;;;;;5076825;28;20452;-68
2023/02/20 02:14:22;;;;;;;8.60;5.57;;;4.30;99.90;;;;;;5076198;28;20496;-68
2023/02/20 02:17:01;;;;;;;9.30;4.60;;;4.40;99.90;;;;;;5076086;28;20941;-68
2023/02/20 02:19:55;;;;;;;6.87;5.30;;;4.30;99.90;;;;;;5076171;28;20442;-68
2023/02/20 02:22:52;;;;;;;11.20;6.23;;;4.40;99.90;;;;;;5075843;28;20979;-68
2023/02/20 02:25:37;;;;;;;7.57;4.87;;;4.50;99.90;;;;;;5076291;28;20464;-67
2023/02/20 02:28:44;;;;;;;8.50;5.87;;;4.50;99.90;;;;;;5076136;28;20443;-66
2023/02/20 02:32:07;;;;;;;9.20;5.23;;;4.40;99.90;;;;;;5075931;28;20940;-68
2023/02/20 02:34:58;;;;;;;7.03;5.00;;;4.50;99.90;;;;;;4994705;28;20466;-67
2023/02/20 02:37:31;;;;;;;9.17;5.43;;;4.50;99.90;;;;;;5075716;28;20443;-67
2023/02/20 02:40:03;;;;;;;9.10;5.20;;;4.50;99.90;;;;;;5075450;28;20453;-68
2023/02/20 02:42:43;;;;;;;9.30;5.70;;;4.50;99.90;;;;;;5075301;28;20482;-68
2023/02/20 02:45:17;;;;;;;9.80;6.17;;;4.50;99.90;;;;;;5075649;28;20442;-68
2023/02/20 02:47:51;;;;;;;12.30;6.23;;;4.50;99.90;;;;;;5075778;28;20438;-68
2023/02/20 02:50:24;;;;;;;7.77;5.70;;;4.60;99.90;;;;;;5076076;28;20445;-68
2023/02/20 02:52:53;;;;;;;9.20;6.50;;;4.70;99.90;;;;;;5075809;28;20452;-68
2023/02/20 02:55:23;;;;;;;9.67;5.80;;;4.70;99.90;;;;;;5075803;28;20969;-68
2023/02/20 02:57:50;;;;;;;7.30;6.23;;;4.70;99.90;;;;;;5075502;28;20489;-68
2023/02/20 03:00:21;;;;;;;10.77;6.40;;;4.70;99.90;;;;;;5075386;28;20840;-69
2023/02/20 03:02:56;;;;;;;11.37;6.40;;;4.70;99.90;;;;;;5075145;28;20450;-69
2023/02/20 03:05:39;;;;;;;9.57;6.27;;;4.80;99.90;;;;;;5075313;28;20449;-67
2023/02/20 03:08:29;;;;;;;7.80;5.40;;;4.80;99.90;;;;;;5075163;28;20867;-67
2023/02/20 03:10:57;;;;;;;8.13;4.97;;;4.90;99.90;;;;;;5075120;28;20439;-68
2023/02/20 03:16:12;;;;;;;10.77;7.20;;;5.00;99.90;;;;;;5074545;28;20465;-68
2023/02/20 03:18:41;;;;;;;7.97;6.23;;;4.90;99.90;;;;;;5075084;28;20460;-68
2023/02/20 03:21:14;;;;;;;7.80;5.80;;;4.90;99.90;;;;;;5074624;28;20887;-67
2023/02/20 03:23:48;;;;;;;10.57;6.60;;;5.00;99.90;;;;;;5074984;28;20489;-66
2023/02/20 03:26:21;;;;;;;9.47;5.93;;;5.00;99.90;;;;;;5074746;28;20891;-67
2023/02/20 03:28:54;;;;;;;10.23;6.40;;;5.00;99.90;;;;;;5074891;28;20442;-67
2023/02/20 03:31:26;;;;;;;8.23;6.17;;;5.10;99.90;;;;;;5074522;28;20838;-67
2023/02/20 03:45:10;;;;;;;9.40;6.97;;;5.20;99.90;;;;;;5074643;28;20460;-68
2023/02/20 03:47:43;;;;;;;10.10;6.77;;;5.30;99.90;;;;;;5074636;28;20460;-67
2023/02/20 03:50:12;;;;;;;10.40;6.50;;;5.30;99.90;;;;;;5074684;28;20783;-68
2023/02/20 03:52:39;;;;;;;10.53;6.07;;;5.30;99.90;;;;;;5074676;28;20454;-67
2023/02/20 03:55:08;;;;;;;9.17;6.07;;;5.30;99.90;;;;;;5074726;28;20488;-67
2023/02/20 03:57:39;;;;;;;8.40;6.40;;;5.30;99.90;;;;;;5074525;28;20829;-67
2023/02/20 04:00:11;;;;;;;8.47;6.90;;;5.30;99.90;;;;;;5074409;28;20438;-69
2023/02/20 04:02:40;;;;;;;9.33;6.57;;;5.30;99.90;;;;;;5074308;28;20443;-67
2023/02/20 04:05:13;;;;;;;8.53;6.40;;;5.30;99.90;;;;;;5074554;28;20450;-68
2023/02/20 04:07:43;;;;;;;8.50;6.20;;;5.30;99.90;;;;;;5074264;28;20537;-68
2023/02/20 04:10:17;;;;;;;7.60;6.27;;;5.30;99.90;;;;;;5074580;28;20470;-68
2023/02/20 04:12:46;;;;;;;8.43;7.40;;;5.30;99.90;;;;;;5074232;28;20928;-68
2023/02/20 04:15:16;;;;;;;11.53;6.83;;;5.40;99.90;;;;;;5074086;28;20478;-68
2023/02/20 04:17:50;;;;;;;9.03;6.50;;;5.40;99.90;;;;;;5074156;28;20454;-68
2023/02/20 04:20:17;;;;;;;9.07;7.10;;;5.40;99.90;;;;;;5074422;28;20453;-68
2023/02/20 04:22:47;;;;;;;10.00;7.50;;;5.40;99.90;;;;;;5074400;28;20462;-68
2023/02/20 04:25:21;;;;;;;12.10;7.47;;;5.40;99.90;;;;;;5074231;28;20458;-68
2023/02/20 04:27:48;;;;;;;10.90;6.80;;;5.40;99.90;;;;;;5078121;28;20438;-68
2023/02/20 04:30:15;;;;;;;7.83;6.80;;;5.40;99.90;;;;;;5078289;28;20523;-68
2023/02/20 04:32:43;;;;;;;9.63;6.60;;;5.40;99.90;;;;;;5078272;28;20541;-68
2023/02/20 04:35:16;;;;;;;8.17;6.90;;;5.40;99.90;;;;;;5078276;28;20481;-68
2023/02/20 04:37:43;;;;;;;9.30;6.73;;;5.50;99.90;;;;;;5078065;28;20906;-68
2023/02/20 04:40:11;;;;;;;11.50;7.43;;;5.50;99.90;;;;;;5078131;28;20450;-68
2023/02/20 04:42:39;;;;;;;10.17;7.43;;;5.50;99.90;;;;;;5077912;28;20492;-68
2023/02/20 04:45:07;;;;;;;9.83;7.73;;;5.50;99.90;;;;;;5078042;28;20523;-68
2023/02/20 04:47:34;;;;;;;8.50;6.90;;;5.50;99.90;;;;;;5078018;28;20882;-68
2023/02/20 04:50:00;;;;;;;8.80;6.90;;;5.50;99.90;;;;;;5077935;28;20458;-68
2023/02/20 04:52:27;;;;;;;10.17;7.40;;;5.50;99.90;;;;;;5078870;28;20834;-68
2023/02/20 04:54:54;;;;;;;9.37;6.60;;;5.50;99.90;;;;;;5077506;28;21005;-68
2023/02/20 04:57:21;;;;;;;10.47;7.80;;;5.60;99.90;;;;;;5078737;28;20930;-68
2023/02/20 04:59:50;;;;;;;9.20;6.93;;;5.50;99.90;;;;;;5097948;28;20461;-68
2023/02/20 05:02:17;;;;;;;12.00;7.40;;;5.50;99.90;;;;;;5097905;28;20445;-68
2023/02/20 05:04:44;;;;;;;11.43;7.17;;;5.50;99.90;;;;;;5097893;28;20540;-66
2023/02/20 05:07:11;;;;;;;8.13;6.20;;;5.60;99.90;;;;;;5097720;28;20807;-67
2023/02/20 05:09:38;;;;;;;9.20;6.63;;;5.60;99.90;;;;;;5097456;28;20463;-66
2023/02/20 05:12:05;;;;;;;9.17;7.37;;;5.60;99.90;;;;;;5097821;28;20453;-66
2023/02/20 05:14:32;;;;;;;11.73;7.33;;;5.60;99.90;;;;;;5097402;28;20886;-67
2023/02/20 05:17:00;;;;;;;11.83;7.53;;;5.70;99.90;;;;;;5097249;28;20449;-66
2023/02/20 05:19:27;;;;;;;8.43;6.20;;;5.60;99.90;;;;;;5097288;28;20459;-66
2023/02/20 05:24:38;;;;;;;9.40;6.50;;;5.60;99.90;;;;;;5097707;28;20417;-66
2023/02/20 05:27:05;;;;;;;9.80;6.97;;;5.60;99.90;;;;;;5097565;28;20459;-66
2023/02/20 05:29:32;;;;;;;9.10;7.00;;;5.60;99.90;;;;;;5097401;28;20479;-66
2023/02/20 05:32:00;;;;;;;10.00;7.10;;;5.60;99.90;;;;;;5097184;28;20453;-62
2023/02/20 05:34:27;;;;;;;12.33;8.23;;;5.60;99.90;;;;;;5097501;28;20459;-63
2023/02/20 05:36:56;;;;;;;8.50;7.20;;;5.60;99.90;;;;;;5092717;28;20496;-62
2023/02/20 05:39:22;;;;;;;10.83;8.53;;;5.60;99.90;;;;;;5076420;28;20465;-62
2023/02/20 05:41:49;;;;;;;10.27;7.50;;;5.60;99.90;;;;;;5088115;28;20959;-61
2023/02/20 05:44:16;;;;;;;9.50;8.30;;;5.60;99.90;;;;;;5097054;28;20550;-62
2023/02/20 05:46:43;;;;;;;8.93;7.27;;;5.60;99.90;;;;;;5097021;28;20485;-62
2023/02/20 05:49:12;;;;;;;11.73;8.63;;;5.60;99.90;;;;;;5096689;28;20540;-62
2023/02/20 05:51:39;;;;;;;10.20;7.80;;;5.60;99.90;;;;;;5097065;28;20453;-62
2023/02/20 05:54:06;;;;;;;8.50;7.00;;;5.60;99.90;;;;;;5096958;28;20453;-60
2023/02/20 05:56:33;;;;;;;9.97;7.97;;;5.60;99.90;;;;;;5096410;28;20477;-63
2023/02/20 05:59:00;;;;;;;9.53;7.77;;;5.60;99.90;;;;;;5096889;28;20783;-64
2023/02/20 06:01:30;;;;;;;12.20;8.17;;;5.50;99.90;;;;;;5095876;28;20980;-63
2023/02/20 06:03:57;;;;;;;10.47;7.53;;;5.50;99.90;;;;;;5096475;28;20459;-63
2023/02/20 06:06:31;;;;;;;10.50;8.50;;;5.50;99.90;;;;;;5097087;28;20458;-63
2023/02/20 06:08:57;;;;;;;12.67;8.83;;;5.50;99.90;;;;;;5096874;28;20442;-63
2023/02/20 06:11:24;;;;;;;10.97;8.53;;;5.50;99.90;;;;;;5097414;28;20458;-63
2023/02/20 06:13:51;;;;;;;9.43;7.53;;;5.50;99.90;;;;;;5096595;28;20762;-63
2023/02/20 06:16:23;;;;;;;10.87;6.93;;;5.50;99.90;;;;;;5096454;28;20491;-62
2023/02/20 06:18:50;;;;;;;10.57;7.63;;;5.50;99.90;;;;;;5096203;28;20444;-64
2023/02/20 06:21:17;;;;;;;10.53;7.87;;;5.40;99.90;;;;;;5096432;28;20808;-63
2023/02/20 06:23:45;;;;;;;11.10;7.50;;;5.50;99.90;;;;;;5096444;28;20948;-63
2023/02/20 06:26:13;;;;;;;11.13;7.53;;;5.60;99.90;;;;;;5096472;28;20449;-63
2023/02/20 06:28:40;;;;;;;10.57;7.77;;;5.60;99.90;;;;;;5096932;28;20457;-64
2023/02/20 06:31:07;;;;;;;12.87;8.93;;;5.60;99.90;;;;;;5096721;28;20453;-63
2023/02/20 06:33:35;;;;;;;12.30;8.47;;;5.60;99.90;;;;;;5096403;28;20536;-62
2023/02/20 06:36:02;;;;;;;10.97;8.83;;;5.60;99.90;;;;;;5095987;28;20481;-63
2023/02/20 06:38:28;;;;;;;8.80;6.60;;;5.60;99.90;;;;;;5095816;28;20453;-62
2023/02/20 06:40:57;;;;;;;11.60;8.47;;;5.70;99.90;;;;;;5095640;28;20477;-63
2023/02/20 06:43:23;;;;;;;14.07;9.10;;;5.70;99.90;;;;;;5095885;28;20442;-61
2023/02/20 06:45:50;;;;;;;14.30;10.40;;;5.70;99.90;;;;;;5095808;28;20453;-64
2023/02/20 06:48:17;;;;;;;13.20;8.83;;;5.70;99.90;;;;;;5095842;28;20787;-64
2023/02/20 06:50:44;;;;;;;13.17;9.80;;;5.60;99.90;;;;;;5095542;28;20467;-65
2023/02/20 06:53:11;;;;;;;13.03;9.90;;;5.70;99.90;;;;;;5096039;28;20510;-63
2023/02/20 06:55:38;;;;;;;14.37;9.97;;;5.60;99.90;;;;;;5096080;28;20874;-63
2023/02/20 06:58:06;;;;;;;14.43;11.07;;;5.70;99.90;;;;;;5095966;28;20540;-64
2023/02/20 07:00:32;;;;;;;15.37;10.63;;;5.60;99.90;;;;;;5095768;28;20463;-63
2023/02/20 07:02:59;;;;;;;17.50;10.83;;;5.70;99.90;;;;;;5095680;28;20796;-63
2023/02/20 07:05:28;;;;;;;16.80;12.17;;;5.70;99.90;;;;;;5095454;28;20489;-64
2023/02/20 07:07:55;;;;;;;14.23;10.40;;;5.70;99.90;;;;;;5095637;28;20484;-64
2023/02/20 07:10:22;;;;;;;16.47;11.43;;;5.80;99.90;;;;;;5095571;28;20480;-63
2023/02/20 07:12:48;;;;;;;15.73;11.00;;;5.80;99.90;;;;;;5095097;28;20914;-63
2023/02/20 07:15:16;;;;;;;14.43;10.33;;;5.90;99.90;;;;;;5095462;28;20464;-62
2023/02/20 07:17:43;;;;;;;16.27;11.27;;;5.90;99.90;;;;;;5095515;28;20464;-65
2023/02/20 07:20:11;;;;;;;18.70;12.07;;;6.00;99.90;;;;;;5095274;28;20785;-62
2023/02/20 07:22:37;;;;;;;17.43;11.93;;;6.00;99.90;;;;;;5095825;28;20453;-64
2023/02/20 07:25:05;;;;;;;15.30;11.70;;;6.10;99.90;;;;;;5095932;28;20453;-64
2023/02/20 07:27:32;;;;;;;15.53;11.40;;;6.20;99.90;;;;;;5095308;28;20449;-64
2023/02/20 07:29:59;;;;;;;18.00;11.37;;;6.20;99.90;;;;;;5095429;28;20449;-63
2023/02/20 07:32:27;;;;;;;14.43;11.03;;;6.30;99.90;;;;;;5095354;28;20504;-63
2023/02/20 07:34:54;;;;;;;12.73;9.70;;;6.40;99.90;;;;;;5095721;28;20458;-63
2023/02/20 07:37:21;;;;;;;15.87;11.90;;;6.50;99.90;;;;;;5095762;28;20491;-64
2023/02/20 07:39:47;;;;;;;14.43;10.47;;;6.50;99.90;;;;;;5095588;28;20548;-64
2023/02/20 07:42:16;;;;;;;13.63;10.80;;;6.60;99.90;;;;;;5095622;28;20588;-62
2023/02/20 07:44:45;;;;;;;13.70;10.93;;;6.60;99.90;;;;;;5095880;28;20453;-63
2023/02/20 07:47:12;;;;;;;13.63;10.60;;;6.60;99.90;;;;;;5095281;28;20453;-64
2023/02/20 07:49:40;;;;;;;13.50;10.40;;;6.70;99.90;;;;;;5095260;28;20471;-63
2023/02/20 07:52:07;;;;;;;16.00;10.90;;;6.80;99.90;;;;;;5095065;28;20902;-64
2023/02/20 07:54:34;;;;;;;15.43;11.10;;;6.80;99.90;;;;;;5094754;28;20993;-64
2023/02/20 07:57:01;;;;;;;14.13;9.80;;;6.90;99.90;;;;;;5094623;28;20487;-64
2023/02/20 07:59:28;;;;;;;15.70;10.23;;;6.90;99.90;;;;;;5095001;28;20921;-63
2023/02/20 08:01:55;;;;;;;14.10;9.40;;;6.90;99.90;;;;;;5094043;28;20457;-62
2023/02/20 08:04:22;;;;;;;13.87;9.30;;;6.90;99.90;;;;;;5094742;28;20464;-62
2023/02/20 08:06:50;;;;;;;11.50;9.03;;;7.00;99.90;;;;;;5094763;28;20845;-63
2023/02/20 08:09:17;;;;;;;11.53;9.00;;;7.00;99.90;;;;;;5094798;28;20464;-64
2023/02/20 08:11:44;;;;;;;12.03;8.37;;;7.10;99.90;;;;;;5094636;28;20791;-63
2023/02/20 08:14:13;;;;;;;12.87;9.47;;;7.10;99.90;;;;;;5094514;28;20545;-62
2023/02/20 08:16:40;;;;;;;10.57;8.10;;;7.10;99.90;;;;;;5094741;28;20568;-63
2023/02/20 08:19:06;;;;;;;10.80;8.77;;;7.10;99.90;;;;;;5094796;28;20446;-65
2023/02/20 08:21:36;;;;;;;10.47;8.57;;;7.20;99.90;;;;;;5094829;28;20522;-65
2023/02/20 08:24:05;;;;;;;9.23;7.90;;;7.20;99.90;;;;;;5095399;28;20595;-63
2023/02/20 08:26:33;;;;;;;10.43;8.63;;;7.30;99.90;;;;;;5094755;28;20503;-63
2023/02/20 08:29:00;;;;;;;10.50;7.80;;;7.30;99.90;;;;;;5094394;28;20453;-63
2023/02/20 08:31:27;;;;;;;10.90;7.87;;;7.30;99.90;;;;;;5094430;28;20785;-64
2023/02/20 08:33:54;;;;;;;10.57;8.20;;;7.30;99.90;;;;;;5094509;28;20454;-63
2023/02/20 08:36:21;;;;;;;10.80;8.53;;;7.40;99.90;;;;;;5094402;28;20487;-65
2023/02/20 08:38:48;;;;;;;8.97;7.60;;;7.40;99.90;;;;;;5094675;28;20894;-62
2023/02/20 08:41:16;;;;;;;10.10;7.30;;;7.30;99.90;;;;;;5094200;28;20576;-62
2023/02/20 08:43:44;;;;;;;8.87;7.27;;;7.40;99.90;;;;;;5094170;28;20463;-64
2023/02/20 08:46:11;;;;;;;7.83;6.53;;;7.40;99.90;;;;;;5093908;28;20922;-67
2023/02/20 08:48:38;;;;;;;9.10;7.50;;;7.50;99.90;;;;;;5094216;28;20453;-62
2023/02/20 08:51:05;;;;;;;10.70;6.43;;;7.50;99.90;;;;;;5094428;28;20744;-64
2023/02/20 08:53:33;;;;;;;10.00;7.30;;;7.50;99.90;;;;;;5093883;28;20540;-61
2023/02/20 08:55:59;;;;;;;9.60;7.47;;;7.50;99.90;;;;;;5094604;28;20535;-63
2023/02/20 08:58:28;;;;;;;8.13;7.07;;;7.60;99.90;;;;;;5094541;28;20990;-64
2023/02/20 09:00:54;;;;;;;10.63;7.10;;;7.60;99.90;;;;;;5094693;28;20553;-63
2023/02/20 09:03:21;;;;;;;8.37;6.77;;;7.70;99.90;;;;;;5094424;28;20929;-64
2023/02/20 09:05:49;;;;;;;12.77;7.80;;;7.70;99.90;;;;;;5094487;28;20780;-63
2023/02/20 09:08:17;;;;;;;9.93;6.87;;;7.80;99.90;;;;;;5094134;28;20453;-63
2023/02/20 09:10:44;;;;;;;8.83;6.63;;;7.80;99.90;;;;;;5093948;28;20811;-63
2023/02/20 09:13:11;;;;;;;9.80;7.00;;;7.80;99.90;;;;;;5094761;28;20977;-63
2023/02/20 09:15:39;;;;;;;13.47;7.27;;;7.90;99.90;;;;;;5097120;28;20489;-64
2023/02/20 09:18:08;;;;;;;9.30;6.77;;;7.90;99.90;;;;;;5095513;28;20941;-63
2023/02/20 09:20:35;;;;;;;8.00;6.20;;;7.90;99.90;;;;;;5097743;28;20461;-63
2023/02/20 09:23:02;;;;;;;10.40;6.40;;;8.00;99.90;;;;;;5097764;28;20472;-63
2023/02/20 09:25:29;;;;;;;9.00;5.93;;;8.00;99.90;;;;;;5097763;28;20453;-62
2023/02/20 09:27:56;;;;;;;11.50;6.87;;;8.00;99.90;;;;;;5096089;28;20544;-65
2023/02/20 09:30:23;;;;;;;9.40;6.47;;;8.00;99.90;;;;;;5097654;28;20454;-64
2023/02/20 09:32:51;;;;;;;9.80;6.67;;;8.00;99.90;;;;;;5097493;28;20457;-63
2023/02/20 09:35:21;;;;;;;7.73;5.43;;;8.10;99.90;;;;;;5097516;28;20583;-63
2023/02/20 09:37:48;;;;;;;8.80;5.77;;;8.20;99.90;;;;;;5094756;28;20483;-63
2023/02/20 09:40:16;;;;;;;9.50;5.70;;;8.20;99.90;;;;;;5076743;28;20917;-64
2023/02/20 09:43:01;;;;;;;6.10;5.37;;;8.20;99.90;;;;;;5076566;28;20494;-62
2023/02/20 09:45:33;;;;;;;7.10;5.13;;;8.30;99.90;;;;;;5077116;28;20773;-64
2023/02/20 09:48:18;;;;;;;7.40;4.90;;;8.30;99.90;;;;;;5076775;28;20449;-64
2023/02/20 09:50:51;;;;;;;9.03;5.30;;;8.40;99.90;;;;;;5077023;28;20447;-63
2023/02/20 09:53:23;;;;;;;10.10;6.60;;;8.30;99.90;;;;;;5076790;28;20443;-63
2023/02/20 09:55:51;;;;;;;7.00;4.77;;;8.30;99.90;;;;;;5076369;28;20989;-62
2023/02/20 09:58:23;;;;;;;9.00;6.00;;;8.40;99.90;;;;;;5076648;28;20492;-62
2023/02/20 10:00:50;;;;;;;11.50;6.20;;;8.40;99.90;;;;;;5076992;28;20452;-64
2023/02/20 10:03:24;;;;;;;7.77;5.23;;;8.50;99.90;;;;;;5078053;28;20457;-64
2023/02/20 10:05:51;;;;;;;6.63;5.57;;;8.50;99.90;;;;;;5076887;28;20438;-64
2023/02/20 10:08:20;;;;;;;9.50;5.47;;;8.50;99.90;;;;;;5076416;28;20454;-64
2023/02/20 10:10:50;;;;;;;12.17;5.90;;;8.50;99.90;;;;;;5076432;28;20454;-63
2023/02/20 10:13:35;;;;;;;9.33;5.67;;;8.60;99.90;;;;;;5076439;28;20528;-64
2023/02/20 10:16:11;;;;;;;8.10;5.90;;;8.70;99.90;;;;;;5076282;28;20443;-63
2023/02/20 10:18:51;;;;;;;7.23;5.80;;;8.70;99.90;;;;;;5076240;28;20469;-64
2023/02/20 10:21:35;;;;;;;6.77;5.80;;;8.60;99.90;;;;;;5077021;28;20447;-63
2023/02/20 10:24:09;;;;;;;7.80;5.53;;;8.70;99.90;;;;;;5075919;28;20765;-64
2023/02/20 10:26:41;;;;;;;7.00;5.00;;;8.70;99.90;;;;;;5076451;28;20529;-65
2023/02/20 10:29:16;;;;;;;7.07;6.10;;;8.80;99.90;;;;;;5075912;28;20534;-64
2023/02/20 10:31:49;;;;;;;5.43;4.90;;;8.80;99.90;;;;;;5076312;28;20773;-65
2023/02/20 10:34:23;;;;;;;7.30;5.70;;;8.90;99.90;;;;;;5075960;28;20881;-64
2023/02/20 10:36:54;;;;;;;7.87;5.53;;;9.00;99.90;;;;;;5076096;28;20466;-65
2023/02/20 10:39:23;;;;;;;10.97;6.70;;;9.00;99.90;;;;;;5076128;28;20443;-64
2023/02/20 10:41:58;;;;;;;7.57;5.33;;;9.00;99.90;;;;;;5075941;28;20508;-63
2023/02/20 10:44:28;;;;;;;13.43;5.70;;;9.00;99.90;;;;;;5075645;28;20489;-63
2023/02/20 10:47:00;;;;;;;7.20;4.87;;;9.10;99.90;;;;;;5075798;28;20458;-63
2023/02/20 10:49:35;;;;;;;9.00;5.23;;;9.10;99.90;;;;;;5075840;28;20499;-63
2023/02/20 10:52:06;;;;;;;7.03;4.93;;;9.20;99.90;;;;;;5075889;28;20518;-64
2023/02/20 10:54:37;;;;;;;9.23;5.40;;;9.10;99.90;;;;;;5083482;28;20461;-63
2023/02/20 10:57:11;;;;;;;7.00;5.20;;;9.10;99.90;;;;;;5091949;28;20467;-63
2023/02/20 10:59:46;;;;;;;9.30;5.23;;;9.20;99.90;;;;;;5075315;28;20438;-63
2023/02/20 11:02:17;;;;;;;7.97;5.10;;;9.20;99.90;;;;;;5075596;28;20442;-64
2023/02/20 11:04:51;;;;;;;7.67;5.37;;;9.30;99.90;;;;;;5075510;28;20452;-63
2023/02/20 11:07:21;;;;;;;6.90;5.00;;;9.40;99.90;;;;;;5075268;28;20435;-62
2023/02/20 11:09:47;;;;;;;6.80;4.90;;;9.50;99.90;;;;;;5075301;28;20914;-64
2023/02/20 11:12:24;;;;;;;9.17;4.83;;;9.50;99.90;;;;;;5075089;28;20458;-62
2023/02/20 11:14:53;;;;;;;6.30;4.63;;;9.50;99.90;;;;;;5075307;28;20442;-64
2023/02/20 11:17:24;;;;;;;8.63;5.20;;;9.40;99.90;;;;;;5074827;28;20493;-63
2023/02/20 11:19:53;;;;;;;7.40;5.30;;;9.50;99.90;;;;;;5075759;28;20439;-63
2023/02/20 11:22:40;;;;;;;7.90;4.47;;;9.60;99.90;;;;;;5075305;28;20458;-62
2023/02/20 11:25:17;;;;;;;9.33;5.37;;;9.60;99.90;;;;;;5081003;28;20514;-63
2023/02/20 11:27:46;;;;;;;5.00;4.50;;;9.70;99.90;;;;;;5074930;28;20438;-64
2023/02/20 11:30:28;;;;;;;9.10;5.37;;;9.70;99.90;;;;;;5074882;28;20469;-64
2023/02/20 11:33:05;;;;;;;5.93;5.33;;;9.70;99.90;;;;;;5074817;28;20442;-64
2023/02/20 11:35:37;;;;;;;7.60;5.33;;;9.70;99.90;;;;;;5074358;28;20443;-64
2023/02/20 11:38:27;;;;;;;8.50;6.00;;;9.70;99.90;;;;;;5074938;28;20467;-63
2023/02/20 11:41:14;;;;;;;13.20;6.00;;;9.70;99.90;;;;;;5074693;28;20481;-65
2023/02/20 11:43:43;;;;;;;7.27;5.47;;;9.70;99.90;;;;;;5074661;28;20442;-64
2023/02/20 11:46:13;;;;;;;6.23;5.63;;;9.70;99.90;;;;;;5074764;28;20469;-64
2023/02/20 11:48:59;;;;;;;8.60;5.40;;;9.80;99.90;;;;;;5074774;28;20903;-63
2023/02/20 11:51:35;;;;;;;7.67;5.40;;;9.80;99.90;;;;;;5075020;28;20442;-63
2023/02/20 11:54:16;;;;;;;6.43;5.63;;;9.80;99.90;;;;;;5074914;28;20476;-64
2023/02/20 11:56:59;;;;;;;10.80;5.53;;;9.80;99.90;;;;;;5075352;28;20453;-64
2023/02/20 11:59:31;;;;;;;9.20;5.80;;;9.80;99.90;;;;;;5074933;28;20748;-65
2023/02/20 12:02:19;;;;;;;6.40;5.77;;;9.80;99.90;;;;;;5074465;28;20442;-64
2023/02/20 12:05:03;;;;;;;8.33;6.17;;;9.90;99.90;;;;;;5074523;28;20927;-64
2023/02/20 12:07:35;;;;;;;9.63;6.40;;;9.80;99.90;;;;;;5074636;28;20525;-63
2023/02/20 12:10:10;;;;;;;7.87;6.00;;;9.90;99.90;;;;;;5074706;28;20453;-64
2023/02/20 12:12:36;;;;;;;11.10;6.40;;;9.80;99.90;;;;;;5074658;28;20782;-64
2023/02/20 12:15:05;;;;;;;10.10;6.57;;;9.80;99.90;;;;;;5074484;28;20464;-64
2023/02/20 12:17:40;;;;;;;12.60;7.40;;;9.90;99.90;;;;;;5074735;28;20474;-63
2023/02/20 12:20:12;;;;;;;8.90;7.87;;;9.90;99.90;;;;;;5074537;28;20850;-63
2023/02/20 12:22:45;;;;;;;9.63;7.60;;;9.90;99.90;;;;;;5074854;28;20485;-63
2023/02/20 12:25:24;;;;;;;10.60;7.13;;;9.90;99.90;;;;;;5074687;28;20443;-64
2023/02/20 12:27:59;;;;;;;8.00;7.00;;;10.00;99.90;;;;;;5074502;28;20474;-65
2023/02/20 12:30:43;;;;;;;12.20;7.93;;;9.90;99.90;;;;;;5074491;28;20442;-64
2023/02/20 12:33:26;;;;;;;9.70;7.47;;;10.00;99.90;;;;;;5074473;28;20452;-63
2023/02/20 12:35:59;;;;;;;9.17;7.50;;;10.00;99.90;;;;;;5074500;28;20541;-63
2023/02/20 12:38:37;;;;;;;12.20;8.20;;;10.00;99.90;;;;;;5074372;28;20476;-62
2023/02/20 12:41:18;;;;;;;9.83;7.93;;;10.00;99.90;;;;;;5074084;28;20588;-62
2023/02/20 12:43:54;;;;;;;9.80;7.40;;;10.00;99.90;;;;;;5074695;28;20449;-63
2023/02/20 12:46:24;;;;;;;10.37;7.90;;;10.00;99.90;;;;;;5073950;28;20541;-64
2023/02/20 12:49:07;;;;;;;10.93;8.60;;;10.00;99.90;;;;;;5078301;28;20545;-63
2023/02/20 12:51:40;;;;;;;12.23;9.60;;;10.00;99.90;;;;;;5078519;28;20756;-63
2023/02/20 12:54:23;;;;;;;12.97;9.20;;;9.90;99.90;;;;;;5078345;28;20492;-63
2023/02/20 12:57:03;;;;;;;13.07;9.30;;;9.90;99.90;;;;;;5078595;28;20511;-63
2023/02/20 12:59:39;;;;;;;12.20;9.03;;;9.90;99.90;;;;;;5078852;28;20466;-63
2023/02/20 13:02:19;;;;;;;11.40;9.03;;;9.90;99.90;;;;;;5077794;28;20456;-62
2023/02/20 13:04:52;;;;;;;11.43;9.50;;;9.80;99.90;;;;;;5077963;28;20456;-62
2023/02/20 13:07:24;;;;;;;13.13;9.50;;;9.80;99.90;;;;;;5078045;28;20543;-63
2023/02/20 13:10:01;;;;;;;14.67;10.67;;;9.80;99.90;;;;;;5077597;28;20442;-63
2023/02/20 13:12:28;;;;;;;14.43;10.60;;;9.70;99.90;;;;;;5077906;28;20443;-62
2023/02/20 13:15:16;;;;;;;16.23;10.97;;;9.70;99.90;;;;;;5077616;28;20548;-63
2023/02/20 13:17:51;;;;;;;14.53;10.50;;;9.60;99.90;;;;;;5077548;28;20462;-63
2023/02/20 13:20:22;;;;;;;12.77;11.03;;;9.50;99.90;;;;;;5077823;28;20761;-62
2023/02/20 13:23:03;;;;;;;18.73;11.80;;;9.50;99.90;;;;;;5078502;28;20798;-63
2023/02/20 13:25:45;;;;;;;15.47;12.10;;;9.40;99.90;;;;;;5078101;28;20458;-64